Time;durP1;ratioP1;P1;durP2;ratioP2;P2;SDS_P1;SDS_P2;PMS_P1;PMS_P2;Temp;Humidity;BMP_temperature;BMP_pressure;BME280_temperature;BME280_humidity;BME280_pressure;Samples;Min_cycle;Max_cycle;Signal;HPM_P1;HPM_P2
2022/04/01 00:02:45;;;;;;;;;;;;;;;21.80;29.67;93383.31;10430302;28;1813;-55
2022/04/01 00:07:46;;;;;;;;;;;;;;;21.79;29.70;93382.53;10428715;28;1842;-54
2022/04/01 00:12:47;;;;;;;;;;;;;;;21.76;29.79;93372.66;10436192;28;1819;-54
2022/04/01 00:17:47;;;;;;;;;;;;;;;21.74;29.97;93376.75;10421360;28;2280;-53
2022/04/01 00:22:48;;;;;;;;;;;;;;;21.75;29.77;93386.19;10434720;28;1891;-55
2022/04/01 00:27:50;;;;;;;;;;;;;;;21.74;29.51;93385.41;10432185;28;1911;-54
2022/04/01 00:32:51;;;;;;;;;;;;;;;21.77;29.91;93386.59;10450927;28;1826;-56
2022/04/01 00:37:52;;;;;;;;;;;;;;;21.75;29.83;93381.69;10430766;28;1901;-54
2022/04/01 00:42:53;;;;;;;;;;;;;;;21.79;29.73;93377.25;10434163;28;1901;-55
2022/04/01 00:47:55;;;;;;;;;;;;;;;21.78;29.52;93378.34;10428107;28;1838;-54
2022/04/01 00:52:56;;;;;;;;;;;;;;;21.75;29.64;93370.34;10418973;28;1988;-52
2022/04/01 00:57:56;;;;;;;;;;;;;;;21.77;29.58;93376.06;10432688;28;2103;-53
2022/04/01 01:02:57;;;;;;;;;;;;;;;21.77;29.84;93368.16;10421523;28;1963;-55
2022/04/01 01:07:57;;;;;;;;;;;;;;;21.80;29.35;93368.22;10450228;23;2509;-48
2022/04/01 01:12:58;;;;;;;;;;;;;;;21.80;29.56;93362.22;10451370;28;2213;-48
2022/04/01 01:17:59;;;;;;;;;;;;;;;21.81;29.52;93361.09;10464845;28;2003;-49
2022/04/01 01:23:00;;;;;;;;;;;;;;;21.80;29.26;93356.94;10464555;28;2013;-48
2022/04/01 01:28:00;;;;;;;;;;;;;;;21.78;29.57;93351.25;10442744;28;1932;-50
2022/04/01 01:33:01;;;;;;;;;;;;;;;21.75;29.49;93346.63;10472035;28;2037;-48
2022/04/01 01:38:02;;;;;;;;;;;;;;;21.75;29.33;93347.41;10471792;28;2080;-48
2022/04/01 01:43:02;;;;;;;;;;;;;;;21.75;29.46;93339.50;10476691;28;2448;-48
2022/04/01 01:48:02;;;;;;;;;;;;;;;21.78;29.27;93343.31;10467566;28;2371;-53
2022/04/01 01:58:23;;;;;;;;;;;;;;;21.78;29.26;93338.06;10472877;28;1906;-52
2022/04/01 02:03:23;;;;;;;;;;;;;;;21.83;29.18;93337.81;10469632;28;1943;-51
2022/04/01 02:08:24;;;;;;;;;;;;;;;21.81;29.48;93334.72;10456750;28;1942;-49
2022/04/01 02:13:26;;;;;;;;;;;;;;;21.80;29.33;93331.31;10476305;28;1976;-50
2022/04/01 02:18:26;;;;;;;;;;;;;;;21.84;29.36;93326.19;10451655;28;1977;-53
2022/04/01 02:23:27;;;;;;;;;;;;;;;21.83;29.27;93324.63;10475725;28;1987;-51
2022/04/01 02:28:27;;;;;;;;;;;;;;;21.82;29.04;93334.41;10449477;28;2026;-51
2022/04/01 02:33:28;;;;;;;;;;;;;;;21.82;29.09;93338.94;10455517;28;1977;-49
2022/04/01 02:38:29;;;;;;;;;;;;;;;21.82;29.24;93328.38;10450397;28;1916;-47
2022/04/01 02:43:29;;;;;;;;;;;;;;;21.78;29.33;93338.06;10452941;28;1948;-49
2022/04/01 02:48:30;;;;;;;;;;;;;;;21.77;29.07;93342.56;10465819;28;2027;-49
2022/04/01 02:53:30;;;;;;;;;;;;;;;21.77;28.92;93337.28;10453106;28;1983;-52
2022/04/01 02:58:30;;;;;;;;;;;;;;;21.77;29.13;93347.81;10473499;28;2033;-51
2022/04/01 03:03:31;;;;;;;;;;;;;;;21.75;29.28;93350.03;10473555;28;1940;-50
2022/04/01 03:08:32;;;;;;;;;;;;;;;21.78;29.15;93345.97;10472824;28;1943;-48
2022/04/01 03:13:33;;;;;;;;;;;;;;;21.74;28.98;93347.75;10468284;28;2007;-47
2022/04/01 03:18:34;;;;;;;;;;;;;;;21.78;29.11;93351.25;10465026;28;2102;-51
2022/04/01 03:23:35;;;;;;;;;;;;;;;21.77;29.09;93349.69;10446178;28;1965;-47
2022/04/01 03:28:36;;;;;;;;;;;;;;;21.77;28.96;93355.75;10469266;28;1916;-50
2022/04/01 03:33:37;;;;;;;;;;;;;;;21.78;28.80;93357.25;10452492;28;2049;-49
2022/04/01 03:38:38;;;;;;;;;;;;;;;21.79;28.91;93350.13;10456102;28;1987;-50
2022/04/01 03:43:40;;;;;;;;;;;;;;;21.79;28.77;93353.53;10452153;28;2047;-47
2022/04/01 03:48:45;;;;;;;;;;;;;;;21.80;28.89;93354.31;10468873;28;1931;-48
2022/04/01 03:53:52;;;;;;;;;;;;;;;21.78;28.97;93356.50;10435283;28;1986;-47
2022/04/01 03:58:52;;;;;;;;;;;;;;;21.79;28.84;93358.03;10469159;28;1991;-50
2022/04/01 04:03:52;;;;;;;;;;;;;;;21.76;28.99;93358.72;10464796;28;1960;-50
2022/04/01 04:09:01;;;;;;;;;;;;;;;21.73;29.31;93364.66;10450385;28;1892;-52
2022/04/01 04:14:02;;;;;;;;;;;;;;;21.75;28.99;93363.22;10465005;28;2063;-49
2022/04/01 04:19:07;;;;;;;;;;;;;;;21.81;28.83;93367.19;10461189;28;2015;-50
2022/04/01 04:24:08;;;;;;;;;;;;;;;21.75;29.01;93365.84;10429353;28;2021;-50
2022/04/01 04:29:11;;;;;;;;;;;;;;;21.80;29.25;93367.50;10448920;28;1910;-47
2022/04/01 04:34:11;;;;;;;;;;;;;;;21.76;29.08;93372.66;10465264;28;2007;-50
2022/04/01 04:39:47;;;;;;;;;;;;;;;21.77;29.13;93381.34;10465049;28;1974;-50
2022/04/01 04:44:47;;;;;;;;;;;;;;;21.77;28.80;93383.97;10356158;28;2575;-48
2022/04/01 04:49:48;;;;;;;;;;;;;;;21.73;28.88;93388.38;10426494;28;2197;-50
2022/04/01 04:54:48;;;;;;;;;;;;;;;21.72;28.99;93394.78;10436139;28;1928;-47
2022/04/01 04:59:49;;;;;;;;;;;;;;;21.74;28.92;93397.84;10441141;28;2312;-48
2022/04/01 05:04:56;;;;;;;;;;;;;;;21.71;29.01;93404.56;10444515;28;1912;-47
2022/04/01 05:10:01;;;;;;;;;;;;;;;21.71;28.93;93416.97;10466704;28;1975;-49
2022/04/01 05:15:04;;;;;;;;;;;;;;;21.73;28.72;93420.03;10469019;28;2078;-50
2022/04/01 05:20:11;;;;;;;;;;;;;;;21.70;28.87;93424.09;10447882;28;1976;-52
2022/04/01 05:25:12;;;;;;;;;;;;;;;21.71;28.74;93436.19;10469774;28;1924;-51
2022/04/01 05:30:14;;;;;;;;;;;;;;;21.74;28.45;93438.13;10444031;28;1929;-49
2022/04/01 05:35:14;;;;;;;;;;;;;;;21.73;28.59;93441.91;10467742;28;1872;-51
2022/04/01 05:40:16;;;;;;;;;;;;;;;21.72;28.40;93439.59;10450116;28;1989;-51
2022/04/01 05:45:16;;;;;;;;;;;;;;;21.73;28.52;93441.91;10451866;28;1901;-49
2022/04/01 05:50:18;;;;;;;;;;;;;;;21.74;28.40;93442.66;10446736;28;1881;-49
2022/04/01 05:55:25;;;;;;;;;;;;;;;21.73;28.42;93447.16;10457158;28;2021;-48
2022/04/01 06:00:26;;;;;;;;;;;;;;;21.70;28.32;93442.56;10447556;28;1936;-47
2022/04/01 06:05:36;;;;;;;;;;;;;;;21.76;28.30;93458.94;10450218;28;1972;-49
2022/04/01 06:10:38;;;;;;;;;;;;;;;21.72;28.34;93460.69;10446031;28;1960;-52
2022/04/01 06:15:41;;;;;;;;;;;;;;;21.68;28.60;93454.53;10463647;28;2167;-50
2022/04/01 06:20:41;;;;;;;;;;;;;;;21.72;28.48;93460.69;10470463;28;1910;-49
2022/04/01 06:25:43;;;;;;;;;;;;;;;21.71;28.46;93464.41;10463455;28;2311;-52
2022/04/01 06:30:44;;;;;;;;;;;;;;;21.70;28.54;93468.19;10449417;28;2081;-50
2022/04/01 06:35:50;;;;;;;;;;;;;;;21.68;28.45;93475.63;10439407;28;1971;-50
2022/04/01 06:40:50;;;;;;;;;;;;;;;21.71;28.11;93469.69;10467537;28;1917;-49
2022/04/01 06:45:51;;;;;;;;;;;;;;;21.68;28.25;93484.31;10436017;28;1945;-49
2022/04/01 06:50:51;;;;;;;;;;;;;;;21.67;28.25;93489.94;10459510;28;1967;-48
2022/04/01 06:55:53;;;;;;;;;;;;;;;21.67;28.32;93484.66;10445269;28;2004;-51
2022/04/01 07:00:53;;;;;;;;;;;;;;;21.67;28.54;93487.28;10464196;28;1969;-53
2022/04/01 07:05:55;;;;;;;;;;;;;;;21.68;28.28;93488.81;10465077;28;2004;-51
2022/04/01 07:10:56;;;;;;;;;;;;;;;21.64;28.40;93485.31;10448039;28;2017;-51
2022/04/01 07:15:56;;;;;;;;;;;;;;;21.67;28.46;93487.28;10424410;28;1910;-49
2022/04/01 07:20:56;;;;;;;;;;;;;;;21.66;28.54;93486.50;10444978;28;1961;-49
2022/04/01 07:25:56;;;;;;;;;;;;;;;21.71;28.41;93496.06;10467389;28;1979;-50
2022/04/01 07:30:57;;;;;;;;;;;;;;;21.74;28.52;93498.03;10448382;28;1929;-48
2022/04/01 07:35:57;;;;;;;;;;;;;;;21.75;28.53;93497.72;10442880;28;1921;-48
2022/04/01 07:40:57;;;;;;;;;;;;;;;21.72;28.36;93497.63;10448748;28;1989;-53
2022/04/01 07:45:58;;;;;;;;;;;;;;;21.71;28.67;93493.44;10450421;28;1918;-49
2022/04/01 07:50:58;;;;;;;;;;;;;;;21.67;28.68;93495.97;10448054;28;1925;-54
2022/04/01 07:55:58;;;;;;;;;;;;;;;21.68;28.67;93502.75;10446384;28;1805;-50
2022/04/01 08:00:59;;;;;;;;;;;;;;;21.70;28.66;93505.09;10448631;28;1891;-52
2022/04/01 08:05:59;;;;;;;;;;;;;;;21.69;28.44;93512.22;10441228;28;1806;-56
2022/04/01 08:11:00;;;;;;;;;;;;;;;21.70;28.80;93513.75;10445203;28;1821;-51
2022/04/01 08:16:00;;;;;;;;;;;;;;;21.71;28.89;93517.16;10448459;28;1799;-49
2022/04/01 08:21:02;;;;;;;;;;;;;;;21.74;28.79;93521.78;10457074;28;2266;-48
2022/04/01 08:26:02;;;;;;;;;;;;;;;21.72;28.48;93529.25;10490724;22;3434;-55
2022/04/01 08:31:03;;;;;;;;;;;;;;;21.70;28.84;93528.81;10565739;27;1901;-56
2022/04/01 08:36:03;;;;;;;;;;;;;;;21.68;28.61;93537.03;10565509;27;2073;-58
2022/04/01 08:41:03;;;;;;;;;;;;;;;21.67;28.87;93532.88;10566569;27;1914;-56
2022/04/01 08:46:05;;;;;;;;;;;;;;;21.66;28.77;93539.25;10556315;27;1825;-54
2022/04/01 08:51:05;;;;;;;;;;;;;;;21.70;28.88;93544.63;10565933;27;1876;-53
2022/04/01 08:56:06;;;;;;;;;;;;;;;21.67;28.55;93556.63;10562326;28;1814;-56
2022/04/01 09:01:07;;;;;;;;;;;;;;;21.67;28.67;93553.97;10568252;27;1957;-56
2022/04/01 09:06:07;;;;;;;;;;;;;;;21.69;28.59;93556.28;10560955;28;1830;-55
2022/04/01 09:11:08;;;;;;;;;;;;;;;21.66;28.54;93565.59;10562475;27;1851;-56
2022/04/01 09:16:21;;;;;;;;;;;;;;;21.68;28.75;93560.78;10565707;27;1911;-57
2022/04/01 09:21:28;;;;;;;;;;;;;;;21.70;28.67;93569.13;10555347;28;2012;-57
2022/04/01 09:26:30;;;;;;;;;;;;;;;21.67;28.54;93575.06;10557467;28;2322;-57
2022/04/01 09:31:37;;;;;;;;;;;;;;;21.75;28.29;93581.31;10559255;28;1801;-56
2022/04/01 09:36:37;;;;;;;;;;;;;;;21.71;28.47;93591.00;10558611;28;1866;-56
2022/04/01 09:41:39;;;;;;;;;;;;;;;21.66;28.58;93578.78;10563632;28;1959;-57
2022/04/01 09:46:44;;;;;;;;;;;;;;;21.63;28.48;93586.59;10562241;28;1794;-53
2022/04/01 09:51:45;;;;;;;;;;;;;;;21.60;28.41;93590.66;10566887;27;1872;-56
2022/04/01 09:56:46;;;;;;;;;;;;;;;21.56;28.63;93594.28;10568663;28;1874;-57
2022/04/01 10:01:47;;;;;;;;;;;;;;;21.56;28.38;93592.44;10567714;28;1905;-56
2022/04/01 10:06:48;;;;;;;;;;;;;;;21.58;28.29;93595.50;10568821;27;2052;-56
2022/04/01 10:11:48;;;;;;;;;;;;;;;21.52;28.65;93594.19;10571439;27;1836;-57
2022/04/01 10:16:48;;;;;;;;;;;;;;;21.60;28.54;93603.84;10567692;27;1738;-56
2022/04/01 10:21:51;;;;;;;;;;;;;;;21.61;28.47;93602.00;10553246;28;1906;-55
2022/04/01 10:27:00;;;;;;;;;;;;;;;21.59;28.23;93602.31;10567451;27;1841;-57
2022/04/01 10:32:22;;;;;;;;;;;;;;;21.63;28.38;93611.13;10568375;27;1787;-57
2022/04/01 10:37:25;;;;;;;;;;;;;;;21.61;28.47;93615.16;10573252;27;1922;-56
2022/04/01 10:42:26;;;;;;;;;;;;;;;21.60;28.66;93616.25;10564485;27;1811;-56
2022/04/01 10:53:41;;;;;;;;;;;;;;;21.55;28.75;93614.63;10515639;27;2111;-61
2022/04/01 10:58:59;;;;;;;;;;;;;;;21.57;28.66;93622.19;10571566;27;1957;-59
2022/04/01 11:04:01;;;;;;;;;;;;;;;21.61;28.52;93617.81;10558092;27;1814;-58
2022/04/01 11:09:04;;;;;;;;;;;;;;;21.64;28.55;93633.72;10567190;27;1850;-56
2022/04/01 11:14:05;;;;;;;;;;;;;;;21.61;28.66;93636.25;10564160;27;1835;-55
2022/04/01 11:19:09;;;;;;;;;;;;;;;21.56;28.43;93631.19;10564226;27;1957;-58
2022/04/01 11:24:20;;;;;;;;;;;;;;;21.58;28.69;93637.69;10566689;27;1821;-58
2022/04/01 11:29:21;;;;;;;;;;;;;;;21.57;28.45;93638.03;10565301;27;1798;-58
2022/04/01 11:34:21;;;;;;;;;;;;;;;21.58;28.88;93631.63;10569698;27;1704;-58
2022/04/01 11:39:22;;;;;;;;;;;;;;;21.57;28.53;93632.75;10565833;27;1941;-57
2022/04/01 11:44:23;;;;;;;;;;;;;;;21.59;28.60;93635.81;10568401;27;1771;-59
2022/04/01 11:49:26;;;;;;;;;;;;;;;21.58;28.56;93642.97;10567480;27;1809;-58
2022/04/01 11:54:27;;;;;;;;;;;;;;;21.56;28.72;93639.88;10565318;28;1826;-56
2022/04/01 11:59:27;;;;;;;;;;;;;;;21.56;28.44;93641.75;10560289;27;2001;-58
2022/04/01 12:04:32;;;;;;;;;;;;;;;21.61;28.48;93644.16;10567264;27;1731;-58
2022/04/01 12:09:36;;;;;;;;;;;;;;;21.59;28.76;93651.66;10565680;27;1819;-59
2022/04/01 12:14:37;;;;;;;;;;;;;;;21.54;28.71;93646.56;10564801;27;1941;-57
2022/04/01 12:19:38;;;;;;;;;;;;;;;21.59;28.71;93649.00;10566446;27;1916;-57
2022/04/01 12:24:38;;;;;;;;;;;;;;;21.58;28.72;93653.50;10564693;28;1797;-58
2022/04/01 12:29:42;;;;;;;;;;;;;;;21.57;28.73;93651.97;10567121;27;1839;-59
2022/04/01 12:34:46;;;;;;;;;;;;;;;21.56;28.60;93657.56;10568208;27;1925;-53
2022/04/01 12:39:55;;;;;;;;;;;;;;;21.61;28.43;93660.00;10582370;27;1958;-53
2022/04/01 12:44:56;;;;;;;;;;;;;;;21.58;28.78;93665.91;10562635;27;2062;-56
2022/04/01 12:49:56;;;;;;;;;;;;;;;21.57;28.52;93659.13;10560980;28;1769;-57
2022/04/01 12:55:00;;;;;;;;;;;;;;;21.53;28.74;93668.78;10557941;27;2038;-55
2022/04/01 13:00:00;;;;;;;;;;;;;;;21.54;28.57;93667.66;10565200;28;1991;-56
2022/04/01 13:05:10;;;;;;;;;;;;;;;21.55;28.57;93669.22;10562189;28;1838;-57
2022/04/01 13:10:11;;;;;;;;;;;;;;;21.53;28.21;93674.81;10570776;27;1931;-55
2022/04/01 13:15:16;;;;;;;;;;;;;;;21.55;28.42;93677.13;10566263;28;1846;-57
2022/04/01 13:20:35;;;;;;;;;;;;;;;21.54;28.93;93676.34;10556925;28;1973;-58
2022/04/01 13:25:36;;;;;;;;;;;;;;;21.53;28.44;93674.06;10570064;28;1866;-59
2022/04/01 13:30:36;;;;;;;;;;;;;;;21.57;28.82;93680.19;10568644;27;1865;-58
2022/04/01 13:35:37;;;;;;;;;;;;;;;21.58;28.87;93679.09;10574789;27;1839;-59
2022/04/01 13:40:38;;;;;;;;;;;;;;;21.61;28.68;93681.09;10563342;27;1974;-57
2022/04/01 13:45:39;;;;;;;;;;;;;;;21.66;28.63;93680.84;10567957;27;1900;-58
2022/04/01 13:50:40;;;;;;;;;;;;;;;21.54;28.57;93691.38;10570711;27;2248;-57
2022/04/01 13:55:41;;;;;;;;;;;;;;;21.59;28.70;93693.81;10567247;27;1846;-59
2022/04/01 14:00:42;;;;;;;;;;;;;;;21.59;28.81;93699.88;10569368;27;1917;-55
2022/04/01 14:05:42;;;;;;;;;;;;;;;21.51;28.82;93697.34;10565199;27;2107;-58
2022/04/01 14:10:43;;;;;;;;;;;;;;;21.57;28.71;93706.56;10567480;27;1842;-57
2022/04/01 14:15:43;;;;;;;;;;;;;;;21.56;29.30;93695.25;10565296;27;1865;-58
2022/04/01 14:20:44;;;;;;;;;;;;;;;21.54;29.06;93699.31;10559794;27;1910;-58
2022/04/01 14:25:45;;;;;;;;;;;;;;;21.52;28.74;93693.59;10562255;27;1800;-56
2022/04/01 14:30:46;;;;;;;;;;;;;;;21.54;29.03;93717.75;10568265;22;2333;-72
2022/04/01 14:35:47;;;;;;;;;;;;;;;21.51;28.81;93707.88;10542452;28;1903;-71
2022/04/01 14:40:50;;;;;;;;;;;;;;;21.52;28.84;93714.69;10563853;27;1929;-70
2022/04/01 14:45:51;;;;;;;;;;;;;;;21.61;28.66;93718.78;10558256;28;1878;-71
2022/04/01 14:50:52;;;;;;;;;;;;;;;21.63;28.81;93726.34;10557667;28;1960;-69
2022/04/01 14:55:52;;;;;;;;;;;;;;;21.54;28.54;93733.56;10562100;27;1869;-69
2022/04/01 15:00:53;;;;;;;;;;;;;;;21.57;28.64;93741.63;10553061;27;1983;-70
2022/04/01 15:05:54;;;;;;;;;;;;;;;21.59;28.48;93743.91;10551829;28;1829;-70
2022/04/01 15:10:54;;;;;;;;;;;;;;;21.54;28.61;93744.13;10558030;28;1824;-70
2022/04/01 15:15:55;;;;;;;;;;;;;;;21.53;28.61;93756.56;10553272;27;1879;-69
2022/04/01 15:20:57;;;;;;;;;;;;;;;21.51;28.96;93757.97;10557984;27;2321;-71
2022/04/01 15:25:58;;;;;;;;;;;;;;;21.53;28.71;93753.91;10542931;27;1798;-70
2022/04/01 15:30:59;;;;;;;;;;;;;;;21.54;28.62;93767.84;10543538;27;1770;-70
2022/04/01 15:36:00;;;;;;;;;;;;;;;21.53;28.74;93768.94;10558849;28;1824;-68
2022/04/01 15:41:02;;;;;;;;;;;;;;;21.55;28.67;93769.41;10554834;27;2113;-70
2022/04/01 15:46:03;;;;;;;;;;;;;;;21.53;28.58;93768.94;10558685;28;1855;-70
2022/04/01 15:51:05;;;;;;;;;;;;;;;21.59;28.70;93767.66;10556768;27;1999;-70
2022/04/01 15:56:05;;;;;;;;;;;;;;;21.58;29.11;93772.13;10534393;27;1963;-72
2022/04/01 16:01:05;;;;;;;;;;;;;;;21.55;29.16;93772.81;10556603;27;2000;-71
2022/04/01 16:06:06;;;;;;;;;;;;;;;21.67;29.55;93777.31;10557418;27;1822;-71
2022/04/01 16:11:07;;;;;;;;;;;;;;;21.65;29.72;93787.44;10543511;28;2032;-71
2022/04/01 16:16:08;;;;;;;;;;;;;;;21.65;29.55;93792.69;10540050;28;2081;-71
2022/04/01 16:21:08;;;;;;;;;;;;;;;21.68;29.18;93805.22;10522684;28;1961;-71
2022/04/01 16:26:10;;;;;;;;;;;;;;;21.68;29.38;93810.50;10539221;28;1848;-71
2022/04/01 16:31:11;;;;;;;;;;;;;;;21.68;29.15;93806.00;10559648;28;1870;-72
2022/04/01 16:36:11;;;;;;;;;;;;;;;21.70;29.21;93805.69;10554625;28;1908;-73
2022/04/01 16:41:12;;;;;;;;;;;;;;;21.73;28.85;93812.94;10559561;27;1914;-71
2022/04/01 16:46:14;;;;;;;;;;;;;;;21.81;29.34;93823.44;10555127;27;1936;-72
2022/04/01 16:51:14;;;;;;;;;;;;;;;21.92;28.53;93828.28;10554534;28;1787;-74
2022/04/01 16:56:16;;;;;;;;;;;;;;;22.00;28.42;93830.03;10530043;28;1959;-72
2022/04/01 17:01:16;;;;;;;;;;;;;;;22.04;28.29;93836.97;10560198;28;1909;-73
2022/04/01 17:16:54;;;;;;;;;;;;;;;22.25;28.37;93853.50;10555161;28;1821;-72
2022/04/01 17:21:55;;;;;;;;;;;;;;;22.30;27.52;93845.34;10560989;28;1906;-73
2022/04/01 17:26:56;;;;;;;;;;;;;;;22.32;27.66;93843.16;10562984;28;1947;-72
2022/04/01 17:31:58;;;;;;;;;;;;;;;22.36;28.21;93846.66;10556981;28;1890;-72
2022/04/01 17:37:00;;;;;;;;;;;;;;;22.40;27.81;93860.75;10560125;28;1922;-71
2022/04/01 17:42:01;;;;;;;;;;;;;;;22.41;27.87;93866.81;10564585;28;2108;-72
2022/04/01 17:47:01;;;;;;;;;;;;;;;22.43;28.03;93862.75;10559387;28;2038;-72
2022/04/01 17:52:03;;;;;;;;;;;;;;;22.53;28.07;93867.59;10560728;28;1789;-74
2022/04/01 17:57:04;;;;;;;;;;;;;;;22.63;27.38;93861.88;10521027;28;1988;-73
2022/04/01 18:02:04;;;;;;;;;;;;;;;22.74;27.10;93864.06;10542375;28;1971;-73
2022/04/01 18:07:04;;;;;;;;;;;;;;;22.82;27.36;93879.03;10559539;28;1881;-75
2022/04/01 18:12:06;;;;;;;;;;;;;;;22.86;27.16;93885.19;10528649;28;2019;-73
2022/04/01 18:17:07;;;;;;;;;;;;;;;22.86;27.17;93891.25;10566114;27;2029;-74
2022/04/01 18:22:08;;;;;;;;;;;;;;;22.93;27.16;93903.91;10564316;28;1914;-75
2022/04/01 18:27:10;;;;;;;;;;;;;;;22.95;26.76;93912.28;10570905;27;1886;-73
2022/04/01 18:32:17;;;;;;;;;;;;;;;22.98;26.90;93907.09;10561596;27;2012;-72
2022/04/01 18:37:17;;;;;;;;;;;;;;;22.93;26.69;93909.97;10551000;28;1514;-72
2022/04/01 18:42:19;;;;;;;;;;;;;;;22.94;27.25;93916.78;10560524;28;1980;-74
2022/04/01 18:47:24;;;;;;;;;;;;;;;22.90;27.04;93915.13;10541742;28;1853;-72
2022/04/01 18:52:27;;;;;;;;;;;;;;;22.87;27.20;93913.16;10530806;28;1846;-73
2022/04/01 18:57:27;;;;;;;;;;;;;;;22.88;27.48;93922.63;10528500;28;1964;-70
2022/04/01 19:02:31;;;;;;;;;;;;;;;22.89;27.21;93924.94;10560893;28;1898;-71
2022/04/01 19:07:38;;;;;;;;;;;;;;;22.88;27.30;93922.63;10558387;28;1520;-72
2022/04/01 19:12:38;;;;;;;;;;;;;;;22.90;27.35;93934.41;10556758;28;1478;-71
2022/04/01 19:17:40;;;;;;;;;;;;;;;22.98;27.02;93935.41;10526249;27;1921;-69
2022/04/01 19:22:41;;;;;;;;;;;;;;;22.96;26.68;93948.16;10523754;27;1858;-69
2022/04/01 19:27:42;;;;;;;;;;;;;;;22.91;26.96;93949.16;10556498;27;1914;-71
2022/04/01 19:32:45;;;;;;;;;;;;;;;22.88;26.60;93949.03;10561845;27;1904;-71
2022/04/01 19:37:46;;;;;;;;;;;;;;;22.80;26.86;93957.84;10562317;28;2004;-70
2022/04/01 19:42:47;;;;;;;;;;;;;;;22.70;27.63;93956.41;10560583;28;1890;-69
2022/04/01 19:47:48;;;;;;;;;;;;;;;22.79;27.45;93953.69;10563763;27;1827;-71
2022/04/01 19:52:49;;;;;;;;;;;;;;;22.71;27.50;93965.13;10548901;27;1871;-71
2022/04/01 19:57:50;;;;;;;;;;;;;;;22.79;26.61;93972.16;10544815;28;2127;-70
2022/04/01 20:02:50;;;;;;;;;;;;;;;22.67;27.32;93980.84;10519088;22;2627;-53
2022/04/01 20:07:51;;;;;;;;;;;;;;;22.73;26.75;93984.06;10472174;28;1842;-49
2022/04/01 20:12:52;;;;;;;;;;;;;;;22.72;26.72;93990.41;10444774;28;1836;-54
2022/04/01 20:17:53;;;;;;;;;;;;;;;22.68;26.67;93987.66;10439861;28;1918;-54
2022/04/01 20:22:54;;;;;;;;;;;;;;;22.62;27.15;93983.69;10418907;28;2036;-50
2022/04/01 20:27:56;;;;;;;;;;;;;;;22.66;27.34;93979.31;10401075;28;1947;-54
2022/04/01 20:32:56;;;;;;;;;;;;;;;22.65;27.26;93972.47;10420629;28;1840;-52
2022/04/01 20:37:56;;;;;;;;;;;;;;;22.61;27.10;93976.88;10420471;28;1954;-50
2022/04/01 20:42:57;;;;;;;;;;;;;;;22.62;26.94;93979.19;10419201;28;2034;-51
2022/04/01 20:47:57;;;;;;;;;;;;;;;22.63;26.31;93982.59;10418405;28;1863;-54
2022/04/01 20:52:57;;;;;;;;;;;;;;;22.57;26.99;93982.00;10418840;28;1801;-49
2022/04/01 20:57:58;;;;;;;;;;;;;;;22.58;26.81;93982.81;10416521;28;1978;-51
2022/04/01 21:03:00;;;;;;;;;;;;;;;22.57;26.83;93991.78;10415948;28;2060;-55
2022/04/01 21:08:00;;;;;;;;;;;;;;;22.55;27.02;93994.78;10435965;28;2021;-55
2022/04/01 21:13:01;;;;;;;;;;;;;;;22.52;27.22;94000.69;10435475;28;2369;-52
2022/04/01 21:18:01;;;;;;;;;;;;;;;22.46;27.05;93996.72;10440594;28;2021;-47
2022/04/01 21:23:02;;;;;;;;;;;;;;;22.49;27.13;94000.59;10436844;28;1931;-53
2022/04/01 21:28:03;;;;;;;;;;;;;;;22.49;27.12;94000.59;10454439;22;3468;-57
2022/04/01 21:33:03;;;;;;;;;;;;;;;22.46;27.15;93990.69;10562927;28;1948;-53
2022/04/01 21:38:04;;;;;;;;;;;;;;;22.45;26.93;93992.56;10556678;28;1977;-56
2022/04/01 21:43:04;;;;;;;;;;;;;;;22.43;27.00;93989.47;10553162;28;1847;-56
2022/04/01 21:48:05;;;;;;;;;;;;;;;22.41;27.00;93982.97;10559074;28;1815;-55
2022/04/01 21:53:05;;;;;;;;;;;;;;;22.40;26.69;93992.75;10560191;28;2014;-55
2022/04/01 21:58:06;;;;;;;;;;;;;;;22.38;27.15;93994.94;10538828;28;1905;-56
2022/04/01 22:03:09;;;;;;;;;;;;;;;22.37;27.15;93992.63;10562408;27;1878;-55
2022/04/01 22:08:09;;;;;;;;;;;;;;;22.34;27.07;93990.66;10558511;28;2251;-56
2022/04/01 22:13:11;;;;;;;;;;;;;;;22.33;27.40;93997.81;10558965;28;1898;-56
2022/04/01 22:18:11;;;;;;;;;;;;;;;22.31;27.22;94004.50;10556668;28;1912;-56
2022/04/01 22:23:12;;;;;;;;;;;;;;;22.33;27.32;93997.81;10565547;27;1848;-55
2022/04/01 22:28:13;;;;;;;;;;;;;;;22.33;27.04;93997.81;10555837;27;1819;-56
2022/04/01 22:33:13;;;;;;;;;;;;;;;22.30;26.99;93998.44;10558972;28;1903;-56
2022/04/01 22:38:13;;;;;;;;;;;;;;;22.29;27.08;93996.91;10557449;27;1979;-56
2022/04/01 22:43:14;;;;;;;;;;;;;;;22.27;26.85;93998.34;10560291;27;2007;-54
2022/04/01 22:48:14;;;;;;;;;;;;;;;22.27;27.01;94006.25;10550207;28;1954;-54
2022/04/01 22:53:14;;;;;;;;;;;;;;;22.24;26.93;93994.47;10561134;27;1849;-56
2022/04/01 22:58:15;;;;;;;;;;;;;;;22.22;26.81;94007.22;10561845;28;1909;-55
2022/04/01 23:03:15;;;;;;;;;;;;;;;22.19;26.96;94007.88;10555470;27;1839;-56
2022/04/01 23:08:16;;;;;;;;;;;;;;;22.17;26.95;94018.00;10539398;28;2078;-55
2022/04/01 23:13:16;;;;;;;;;;;;;;;22.17;26.75;94017.22;10555873;27;1913;-56
2022/04/01 23:18:17;;;;;;;;;;;;;;;22.14;26.94;94010.72;10554622;28;1985;-52
2022/04/01 23:23:17;;;;;;;;;;;;;;;22.12;26.80;94018.19;10557133;27;1833;-53
2022/04/01 23:28:17;;;;;;;;;;;;;;;22.11;26.61;94019.28;10551128;28;1823;-56
2022/04/01 23:33:18;;;;;;;;;;;;;;;22.08;26.71;94008.59;10562562;27;2065;-55
2022/04/01 23:38:18;;;;;;;;;;;;;;;22.06;26.76;94003.66;10553522;27;1971;-55
2022/04/01 23:43:19;;;;;;;;;;;;;;;22.03;26.69;94009.56;10549541;27;1969;-55
2022/04/01 23:48:19;;;;;;;;;;;;;;;22.01;26.80;94017.03;10552137;28;2022;-55
2022/04/01 23:53:20;;;;;;;;;;;;;;;21.99;26.49;94018.47;10554232;27;2026;-55
2022/04/01 23:58:20;;;;;;;;;;;;;;;21.98;26.84;94017.69;10559791;27;1906;-56
